Terminal Aerodrome Forecast
Issued by NWS Louisville, KY

Home | Current Version | Previous Version | Text Only | Print | Product List | Glossary Off
Versions: 1 2 3 4 5 6 7 8 9 10 11 12 13 14 15 16 17

711
FTUS43 KLMK 290751 AAC
TAFSDF
TAF AMD
KSDF 290751Z 2908/3012 26010KT 5SM -TSRA SCT025 BKN035CB
     FM290900 16011KT P6SM VCTS FEW020 BKN035CB
     FM291600 18013G23KT P6SM SCT040=

USA.gov is the U.S. government's official web portal to all federal, state and local government web resources and services.